• Join FlightAware (Why Join?)
  • Login
  • US Flag 
08:38AM EST


 

Airport Tracker/Info


-or-


 

Live Flight TrackerFlight Track Log ✈ SWA670 ✈ 29-Apr-2014 ✈ KSLC - KDEN

Flight Track Log - Related Links

Times and Time Zones

All times are in EDT time to prevent confusion due to time zone crossing. See the SWA670 flight status page for this flight to view local times or setup timezone preferences in your user account.

Time Position Orientation Groundspeed Altitude Reporting Facility
EDT Latitude Longitude Course Direction KTS MPH feet Rate Location/Type
10:12PM 40.8658 -111.9847 355° North 204 235 6,800  Level Salt Lake Center
10:13PM 40.8778 -111.9869 352° North 200 230 6,900 2,459 Climbing Salt Lake Center
10:14PM 40.9386 -111.9939 355° North 262 302 9,300 2,852 Climbing Salt Lake Center
10:14PM 40.9508 -111.9964 351° North 262 302 9,800 3,091 Climbing Salt Lake Center
10:15PM 41.0117 -111.9606 24° Northeast 285 328 12,700 2,537 Climbing Salt Lake Center
10:16PM 40.9917 -111.8497 103° East 316 364 15,000 2,186 Climbing Salt Lake Center
10:17PM 40.9597 -111.7372 111° Southeast 335 386 17,400 2,098 Climbing Salt Lake Center
10:18PM 40.9219 -111.5858 108° East 370 426 19,300 2,049 Climbing Salt Lake Center
10:19PM 40.9128 -111.4503 95° East 372 428 21,600 2,000 Climbing Salt Lake Center
10:20PM 40.8992 -111.3094 97° East 391 450 23,400 1,854 Climbing Salt Lake Center
10:21PM 40.8817 -111.1658 99° East 396 456 25,400 1,645 Climbing Salt Lake Center
10:22PM 40.8644 -111.0189 99° East 403 464 26,800 1,268 Climbing Salt Lake Center
10:23PM 40.8453 -110.8644 99° East 425 489 28,000 1,317 Climbing Salt Lake Center
10:24PM 40.8258 -110.7058 99° East 435 501 29,500 1,659 Climbing Salt Lake Center
10:25PM 40.8025 -110.5183 99° East 439 505 31,400 1,610 Climbing Salt Lake Center
10:26PM 40.7828 -110.3664 100° East 440 506 32,800 1,258 Climbing Salt Lake Center
10:27PM 40.7606 -110.1864 99° East 442 509 34,000 1,220 Climbing Salt Lake Center
10:28PM 40.7414 -110.0303 99° East 445 512 35,300 1,415 Climbing Salt Lake Center
10:29PM 40.7300 -109.8733 95° East 446 513 36,900 823 Climbing Salt Lake Center
10:30PM 40.7175 -109.6967 95° East 439 505 37,000 49 Climbing Salt Lake Center
10:31PM 40.7072 -109.5464 95° East 433 498 37,000  Level Salt Lake Center
10:32PM 40.6936 -109.3714 96° East 432 497 37,000  Level Salt Lake Center
10:33PM 40.6825 -109.2208 96° East 431 496 37,000  Level Salt Lake Center
10:34PM 40.6703 -109.0669 96° East 433 498 37,000  Level Denver Center
10:35PM 40.6556 -108.8819 96° East 447 514 37,000  Level Denver Center
10:36PM 40.6436 -108.7219 96° East 453 521 37,000  Level Denver Center
10:37PM 40.6308 -108.5650 96° East 453 521 37,000  Level Denver Center
10:38PM 40.6156 -108.3833 96° East 448 516 37,000  Level Denver Center
10:39PM 40.6022 -108.2200 96° East 440 506 37,000  Level Salt Lake Center
10:40PM 40.5875 -108.0558 97° East 435 501 37,000  Level Denver Center
10:41PM 40.5750 -107.9081 96° East 427 491 37,000  Level Denver Center
10:42PM 40.5611 -107.7608 97° East 426 490 37,000  Level Denver Center
10:43PM 40.5464 -107.5894 96° East 425 489 37,000  Level Denver Center
10:44PM 40.5333 -107.4442 97° East 421 484 37,000  Level Denver Center
10:45PM 40.5172 -107.2764 97° East 418 481 37,000  Level Denver Center
10:46PM 40.5128 -107.1483 93° East 417 480 37,000  Level Denver Center
10:47PM 40.5042 -106.9953 94° East 417 480 37,000  Level Denver Center
10:49PM 40.4950 -106.8392 94° East 422 486 37,000  Level Denver Center
10:50PM 40.4842 -106.6533 94° East 424 488 37,000 -390 Level Denver Center
10:51PM 40.4764 -106.4994 94° East 424 488 36,200 -1,820 Descending Denver Center
10:52PM 40.4669 -106.3456 95° East 421 484 33,300 -1,561 Descending Denver Center
10:53PM 40.4581 -106.2067 95° East 402 463 33,000 -1,415 Descending Denver Center
10:54PM 40.4483 -106.0397 94° East 408 470 30,400 -2,607 Descending Denver Center
10:55PM 40.4294 -105.8886 99° East 418 481 27,700 -2,508 Descending Denver Center
10:56PM 40.4053 -105.7417 102° East 416 479 25,300 -2,115 Descending Denver Center
10:57PM 40.3822 -105.5994 102° East 407 468 23,400 -1,707 Descending Denver Center
10:58PM 40.3608 -105.4600 101° East 393 452 21,800 -1,707 Descending Denver Center
10:59PM 40.2964 -105.3425 126° Southeast 379 436 19,900 -1,756 Descending Denver Center
11:00PM 40.2297 -105.2367 130° Southeast 374 430 18,200 -1,463 Descending Denver Center
11:01PM 40.1553 -105.1192 130° Southeast 388 447 16,900 -732 Descending Denver Center
11:02PM 40.0889 -105.0178 131° Southeast 369 425 16,700 -1,024 Descending Denver Center
11:03PM 40.0203 -104.9108 130° Southeast 380 437 14,800 -1,918 Descending Denver Center
11:04PM 39.9464 -104.8106 134° Southeast 387 445 12,800 -1,721 Descending Denver Center
11:05PM 39.8342 -104.8072 179° South 383 441 11,300 -1,033 Descending Denver Center
11:06PM 39.7383 -104.8100 181° South 337 388 10,700 -836 Descending Denver Center
11:07PM 39.6594 -104.7922 170° South 303 349 9,600 -1,317 Descending Denver Center
11:08PM 39.6544 -104.6939 94° East 263 303 8,000 -1,024 Descending Denver Center
11:09PM 39.6919 -104.6603 35° Northeast 170 196 7,500 -393 Descending Denver Center
11:10PM 39.7419 -104.6614 359° North 176 203 7,200 -541 Descending Denver Center
11:11PM 39.7842 -104.6608 North 141 162 6,400 -787 Descending Denver Center
11:12PM 39.8239 -104.6606 360° North 134 154 5,600 -787 Descending Denver Center
11:14PM 39.8500 -104.6667 21° North  Level FlightAware Approximate
11:21PM 39.8617 -104.6732 21° North  Level Estimated
11:22PM 39.8617 -104.6732 21° North  Level Estimated
11:23PM 39.8617 -104.6732 21° North  Level Estimated